Time;durP1;ratioP1;P1;durP2;ratioP2;P2;SDS_P1;SDS_P2;PMS_P1;PMS_P2;Temp;Humidity;BMP_temperature;BMP_pressure;BME280_temperature;BME280_humidity;BME280_pressure;Samples;Min_cycle;Max_cycle;Signal;HPM_P1;HPM_P2
2021/03/29 00:08:32;;;;;;;5.57;4.60;;;11.00;48.40;;;;;;6100132;22;20422;-90
2021/03/29 00:11:00;;;;;;;6.72;4.20;;;14.20;51.40;;;;;;6121161;23;20131;-92
2021/03/29 00:13:31;;;;;;;7.25;4.45;;;13.50;51.00;;;;;;6121290;23;20138;-91
2021/03/29 00:26:22;;;;;;;6.15;4.57;;;11.30;47.00;;;;;;6097823;22;20213;-92
2021/03/29 00:39:31;;;;;;;6.38;4.82;;;11.30;46.60;;;;;;5673472;23;9221528;-89
2021/03/29 00:41:57;;;;;;;6.33;5.43;;;11.80;47.80;;;;;;6119565;23;20186;-92
2021/03/29 01:05:15;;;;;;;9.27;4.53;;;11.20;47.10;;;;;;6091937;23;20414;-91
2021/03/29 01:18:27;;;;;;;8.20;6.17;;;11.00;47.30;;;;;;6106281;23;20489;-92
2021/03/29 01:34:03;;;;;;;10.63;5.65;;;10.60;48.90;;;;;;6088220;23;20458;-91
2021/03/29 01:36:30;;;;;;;12.15;6.03;;;10.30;50.00;;;;;;6192161;23;20155;-90
2021/03/29 01:39:01;;;;;;;13.65;6.72;;;14.10;55.20;;;;;;6091230;23;20555;-93
2021/03/29 01:41:27;;;;;;;8.00;5.50;;;9.40;50.50;;;;;;6187897;23;20662;-92
2021/03/29 01:43:53;;;;;;;12.10;6.23;;;12.30;52.30;;;;;;6174755;22;20429;-92
2021/03/29 01:47:06;;;;;;;11.90;6.55;;;13.20;53.90;;;;;;6120977;23;20406;-91
2021/03/29 01:55:50;;;;;;;8.93;5.30;;;10.20;50.00;;;;;;6121130;22;20213;-90
2021/03/29 02:01:02;;;;;;;11.48;5.40;;;10.10;49.90;;;;;;6105654;23;20456;-90
2021/03/29 02:19:04;;;;;;;7.30;5.87;;;10.20;49.60;;;;;;6083303;22;20190;-90
2021/03/29 02:26:43;;;;;;;10.43;6.60;;;10.20;49.60;;;;;;6044871;23;20434;-90
2021/03/29 02:29:10;;;;;;;11.82;6.70;;;13.50;52.00;;;;;;6091264;23;20395;-90
2021/03/29 02:31:38;;;;;;;11.18;6.40;;;9.90;51.20;;;;;;6092025;23;20127;-91
2021/03/29 02:39:14;;;;;;;13.73;5.30;;;10.30;49.30;;;;;;6119816;22;20487;-91
2021/03/29 02:41:45;;;;;;;9.40;5.20;;;11.90;50.50;;;;;;6119585;23;20174;-91
2021/03/29 02:44:12;;;;;;;9.37;5.40;;;12.20;51.40;;;;;;6095393;23;20134;-93
2021/03/29 02:46:37;;;;;;;7.18;5.45;;;14.10;55.80;;;;;;6102068;23;20502;-91
2021/03/29 02:49:05;;;;;;;6.80;5.40;;;13.30;55.90;;;;;;6095353;23;20177;-92
2021/03/29 03:04:32;;;;;;;6.77;5.40;;;10.30;49.00;;;;;;6119302;22;20429;-91
2021/03/29 03:07:01;;;;;;;10.03;5.57;;;13.30;51.90;;;;;;6119899;23;20369;-88
2021/03/29 03:09:30;;;;;;;18.48;6.10;;;10.50;52.40;;;;;;6114499;22;20426;-91
2021/03/29 03:11:57;;;;;;;5.33;4.60;;;11.50;50.40;;;;;;6136433;22;20208;-92
2021/03/29 03:14:24;;;;;;;9.83;5.40;;;13.10;54.00;;;;;;6118837;23;20406;-90
2021/03/29 03:22:01;;;;;;;7.97;4.90;;;10.20;49.00;;;;;;6090486;22;20233;-92
2021/03/29 03:27:09;;;;;;;9.60;4.53;;;10.20;49.00;;;;;;6056317;23;20433;-90
2021/03/29 03:29:41;;;;;;;10.67;4.63;;;12.80;51.70;;;;;;6093017;23;20449;-92
2021/03/29 03:32:14;;;;;;;5.88;4.55;;;12.90;51.80;;;;;;6147338;22;20389;-88
2021/03/29 03:34:43;;;;;;;4.50;4.10;;;13.70;52.40;;;;;;6147580;22;20153;-92
2021/03/29 03:37:15;;;;;;;9.57;4.83;;;13.30;52.10;;;;;;6147664;22;20397;-92
2021/03/29 03:39:47;;;;;;;6.23;4.00;;;13.10;51.80;;;;;;6122731;23;20358;-91
2021/03/29 03:42:17;;;;;;;8.53;4.50;;;12.30;50.40;;;;;;6148863;22;20419;-92
2021/03/29 03:44:44;;;;;;;4.57;4.03;;;14.30;55.60;;;;;;6149568;22;20384;-92
2021/03/29 03:47:10;;;;;;;9.97;4.30;;;8.90;50.30;;;;;;6150025;22;20389;-93
2021/03/29 03:52:14;;;;;;;9.30;3.73;;;10.20;48.50;;;;;;6065788;23;20445;-89
2021/03/29 04:12:59;;;;;;;5.07;4.10;;;9.00;50.60;;;;;;6120376;23;20141;-90
2021/03/29 04:25:46;;;;;;;6.78;4.40;;;9.90;50.20;;;;;;6105007;22;20202;-91
2021/03/29 04:28:12;;;;;;;17.00;4.43;;;11.90;54.10;;;;;;6113482;22;20255;-90
2021/03/29 04:30:37;;;;;;;4.30;3.90;;;12.60;55.00;;;;;;6267865;22;20166;-89
2021/03/29 04:33:03;;;;;;;6.60;4.23;;;9.70;53.60;;;;;;6243981;22;20442;-92
2021/03/29 04:35:29;;;;;;;7.10;3.87;;;12.20;55.60;;;;;;6268083;23;20148;-92
2021/03/29 04:37:58;;;;;;;6.63;4.60;;;10.40;54.30;;;;;;6269711;22;20394;-93
2021/03/29 04:40:31;;;;;;;6.22;4.47;;;12.20;52.70;;;;;;6085663;22;20426;-90
2021/03/29 04:43:17;;;;;;;9.27;4.37;;;13.80;53.50;;;;;;6060343;23;20155;-91
2021/03/29 04:49:31;;;;;;;11.70;4.50;;;11.40;50.70;;;;;;6059141;23;20512;-90
2021/03/29 04:51:58;;;;;;;4.18;3.88;;;12.30;51.70;;;;;;6041806;23;20426;-87
2021/03/29 04:54:24;;;;;;;8.13;4.50;;;12.60;54.50;;;;;;6149037;23;20153;-90
2021/03/29 04:56:52;;;;;;;10.63;4.23;;;11.50;55.10;;;;;;6147791;23;20163;-89
2021/03/29 04:59:17;;;;;;;8.43;4.15;;;14.10;59.10;;;;;;6097755;23;20138;-88
2021/03/29 05:01:43;;;;;;;8.80;4.53;;;11.70;52.60;;;;;;6122943;22;20242;-92
2021/03/29 05:04:11;;;;;;;7.30;4.93;;;9.70;56.70;;;;;;6171525;22;20206;-89
2021/03/29 05:06:39;;;;;;;4.53;4.13;;;9.60;73.10;;;;;;6246088;23;20146;-88
2021/03/29 05:09:05;;;;;;;12.05;4.97;;;9.60;76.30;;;;;;6167533;22;20193;-90
2021/03/29 05:16:42;;;;;;;8.90;4.97;;;9.60;57.00;;;;;;6100348;23;20204;-91
2021/03/29 05:19:11;;;;;;;12.23;5.70;;;9.60;58.30;;;;;;6116688;23;20394;-86
2021/03/29 05:21:40;;;;;;;10.23;4.82;;;9.70;58.30;;;;;;6081464;23;20469;-88
2021/03/29 05:29:20;;;;;;;5.65;5.15;;;9.70;57.10;;;;;;6105216;23;20264;-88
2021/03/29 05:31:46;;;;;;;5.10;4.53;;;9.70;58.40;;;;;;6094146;23;20158;-92
2021/03/29 05:34:24;;;;;;;11.67;4.60;;;9.70;57.80;;;;;;6118544;23;20150;-91
2021/03/29 05:36:57;;;;;;;5.82;4.22;;;9.70;58.30;;;;;;6092492;23;20371;-87
2021/03/29 05:39:24;;;;;;;15.77;5.05;;;9.70;56.10;;;;;;6091940;23;20476;-90
2021/03/29 05:42:11;;;;;;;7.00;4.33;;;9.70;57.90;;;;;;6209557;23;20217;-89
2021/03/29 05:44:44;;;;;;;5.17;4.00;;;10.10;55.90;;;;;;6091705;23;20386;-92
2021/03/29 05:47:31;;;;;;;14.93;4.90;;;10.50;56.20;;;;;;6152720;23;20385;-89
2021/03/29 05:50:21;;;;;;;5.30;4.80;;;10.60;56.30;;;;;;6115402;23;20154;-90
2021/03/29 05:53:07;;;;;;;11.38;6.72;;;11.00;56.60;;;;;;6091265;23;20162;-91
2021/03/29 05:55:47;;;;;;;6.60;3.83;;;9.90;56.10;;;;;;6091203;23;20165;-92
2021/03/29 05:59:13;;;;;;;7.97;4.00;;;9.90;57.90;;;;;;6117313;23;20489;-90
2021/03/29 06:01:57;;;;;;;8.38;4.88;;;9.90;58.00;;;;;;6094518;23;20184;-90
2021/03/29 06:05:05;;;;;;;9.27;4.68;;;9.80;57.80;;;;;;6094970;23;20193;-92
2021/03/29 06:21:14;;;;;;;4.20;3.70;;;11.70;51.50;;;;;;6121437;22;20450;-92
2021/03/29 06:24:55;;;;;;;3.53;3.10;;;12.10;49.90;;;;;;6116310;23;20391;-92
2021/03/29 06:27:41;;;;;;;9.60;3.80;;;15.10;50.80;;;;;;6203909;23;20391;-91
2021/03/29 06:30:36;;;;;;;5.50;3.53;;;15.10;50.30;;;;;;6119816;23;20382;-90
2021/03/29 06:33:16;;;;;;;4.00;3.47;;;13.50;49.80;;;;;;6086815;23;20385;-87
2021/03/29 06:35:57;;;;;;;6.90;4.20;;;12.80;49.20;;;;;;6081389;23;20394;-90
2021/03/29 06:38:57;;;;;;;9.23;3.60;;;12.90;49.90;;;;;;6083081;23;20759;-89
2021/03/29 06:41:52;;;;;;;5.27;4.10;;;15.90;48.90;;;;;;6104948;23;20438;-88
2021/03/29 06:44:30;;;;;;;7.73;4.10;;;13.90;46.00;;;;;;6083708;23;20382;-91
2021/03/29 06:47:12;;;;;;;3.83;3.50;;;13.40;43.10;;;;;;6085902;23;20397;-89
2021/03/29 06:49:51;;;;;;;4.73;4.07;;;16.80;42.70;;;;;;6086312;23;20371;-91
2021/03/29 06:55:23;;;;;;;5.80;3.47;;;14.90;39.10;;;;;;6110672;23;20473;-89
2021/03/29 06:58:08;;;;;;;4.17;3.83;;;17.40;40.60;;;;;;6111929;23;20382;-90
2021/03/29 07:00:41;;;;;;;4.77;4.00;;;18.50;40.00;;;;;;6111089;23;20569;-91
2021/03/29 07:03:10;;;;;;;3.93;3.47;;;18.90;43.30;;;;;;6106657;23;20381;-91
2021/03/29 07:05:37;;;;;;;8.20;4.73;;;;;;;;;;6088081;23;20374;-90
2021/03/29 07:08:07;;;;;;;4.17;3.40;;;17.20;50.50;;;;;;6213939;23;20390;-89
2021/03/29 07:10:34;;;;;;;6.77;3.47;;;17.10;52.90;;;;;;6088047;23;20387;-91
2021/03/29 07:13:01;;;;;;;3.57;3.27;;;17.70;35.00;;;;;;6113155;23;20433;-92
2021/03/29 07:15:29;;;;;;;5.73;3.50;;;19.30;40.60;;;;;;6081867;23;20383;-91
2021/03/29 07:18:08;;;;;;;6.33;2.90;;;20.10;38.70;;;;;;6086526;23;20398;-92
2021/03/29 07:20:37;;;;;;;6.47;3.50;;;18.20;35.50;;;;;;6111942;23;20421;-91
2021/03/29 07:23:03;;;;;;;11.17;3.70;;;18.80;37.40;;;;;;6083843;23;20383;-90
2021/03/29 07:25:36;;;;;;;3.77;3.47;;;19.90;42.10;;;;;;6088654;23;20405;-92
2021/03/29 07:28:09;;;;;;;5.07;3.43;;;21.10;41.00;;;;;;6112451;23;20389;-92
2021/03/29 07:30:54;;;;;;;5.07;3.90;;;19.60;37.00;;;;;;6091600;23;20408;-90
2021/03/29 07:33:21;;;;;;;8.73;4.20;;;18.10;34.20;;;;;;6088708;23;20362;-87
2021/03/29 07:35:53;;;;;;;6.23;3.50;;;20.00;35.30;;;;;;6087712;23;20406;-87
2021/03/29 07:38:27;;;;;;;6.53;3.07;;;18.60;34.60;;;;;;6088422;23;20405;-88
2021/03/29 07:40:59;;;;;;;6.00;3.27;;;19.30;35.50;;;;;;6087664;23;20410;-92
2021/03/29 07:43:47;;;;;;;4.10;3.10;;;21.10;36.40;;;;;;6087497;23;20391;-92
2021/03/29 07:46:22;;;;;;;7.10;3.97;;;21.20;35.20;;;;;;6095659;23;20370;-91
2021/03/29 07:48:48;;;;;;;4.23;3.07;;;18.60;33.30;;;;;;6125943;23;20398;-92
2021/03/29 07:51:20;;;;;;;6.53;3.70;;;18.90;33.80;;;;;;6087264;23;20390;-92
2021/03/29 07:53:59;;;;;;;9.23;3.93;;;19.50;38.80;;;;;;6210800;23;20449;-92
2021/03/29 07:56:47;;;;;;;10.57;3.30;;;20.00;37.80;;;;;;6111938;23;20410;-89
2021/03/29 07:59:16;;;;;;;3.63;3.00;;;18.10;33.00;;;;;;6211600;23;20382;-90
2021/03/29 08:02:03;;;;;;;3.43;2.77;;;18.90;33.80;;;;;;6091124;23;20455;-91
2021/03/29 08:07:37;;;;;;;5.10;3.40;;;18.50;34.00;;;;;;6106163;23;20463;-92
2021/03/29 08:10:05;;;;;;;4.37;3.97;;;;;;;;;;6087918;23;20410;-88
2021/03/29 08:13:01;;;;;;;5.73;3.90;;;19.10;45.00;;;;;;6114986;23;20394;-90
2021/03/29 08:16:19;;;;;;;3.47;3.10;;;19.10;45.00;;;;;;6186978;23;20492;-87
2021/03/29 08:19:14;;;;;;;3.13;2.40;;;;;;;;;;6136808;23;20457;-88
2021/03/29 08:22:25;;;;;;;5.50;3.50;;;19.70;45.30;;;;;;6113834;23;20928;-89
2021/03/29 08:24:52;;;;;;;4.47;3.77;;;20.20;46.10;;;;;;6114302;23;20406;-88
2021/03/29 08:27:34;;;;;;;4.10;3.33;;;19.30;46.20;;;;;;6113010;23;20386;-89
2021/03/29 08:35:20;;;;;;;7.00;3.57;;;20.20;45.20;;;;;;6111642;23;20433;-91
2021/03/29 08:37:55;;;;;;;5.80;3.40;;;21.30;42.20;;;;;;6110344;23;20526;-88
2021/03/29 08:40:29;;;;;;;3.90;3.40;;;;;;;;;;6209664;22;20512;-91
2021/03/29 08:45:36;;;;;;;4.43;3.50;;;20.00;52.90;;;;;;6106233;23;20445;-90
2021/03/29 08:48:04;;;;;;;3.80;3.40;;;20.10;54.60;;;;;;6111966;23;20378;-89
2021/03/29 08:50:36;;;;;;;3.30;3.00;;;20.00;54.30;;;;;;6088559;23;20402;-90
2021/03/29 08:53:05;;;;;;;3.33;3.10;;;20.20;54.20;;;;;;6114868;23;20370;-88
2021/03/29 08:55:40;;;;;;;4.20;3.20;;;20.40;55.10;;;;;;6086887;23;20420;-88
2021/03/29 08:58:20;;;;;;;5.33;3.53;;;20.40;54.20;;;;;;6200170;23;20386;-89
2021/03/29 09:00:49;;;;;;;5.87;3.53;;;20.60;54.80;;;;;;6087809;23;20425;-89
2021/03/29 09:03:30;;;;;;;13.60;4.03;;;20.50;54.40;;;;;;6113387;23;20371;-86
2021/03/29 09:06:13;;;;;;;9.20;4.90;;;;;;;;;;6049215;23;20554;-84
2021/03/29 09:08:40;;;;;;;4.43;3.40;;;19.80;54.50;;;;;;6209446;23;20396;-89
2021/03/29 09:11:16;;;;;;;4.57;3.80;;;19.60;55.90;;;;;;6211593;23;20385;-92
2021/03/29 09:13:43;;;;;;;5.70;3.63;;;20.20;55.50;;;;;;6190012;23;20490;-88
2021/03/29 09:16:12;;;;;;;6.07;3.20;;;19.90;55.70;;;;;;6109546;23;20362;-90
2021/03/29 09:18:43;;;;;;;6.23;3.17;;;;;;;;;;6087670;23;20370;-91
2021/03/29 09:24:22;;;;;;;5.33;3.70;;;;;;;;;;6116877;23;20384;-90
2021/03/29 09:27:24;;;;;;;4.47;2.90;;;;;;;;;;6089248;23;20399;-88
2021/03/29 09:30:07;;;;;;;4.67;3.23;;;;;;;;;;6132678;23;20377;-87
2021/03/29 09:32:37;;;;;;;4.20;3.13;;;;;;;;;;6113106;23;20856;-90
2021/03/29 09:42:58;;;;;;;3.53;2.67;;;20.80;32.10;;;;;;6121262;22;20517;-89
2021/03/29 09:45:37;;;;;;;6.63;4.73;;;23.60;33.60;;;;;;6086003;23;20406;-90
2021/03/29 09:48:37;;;;;;;4.20;2.93;;;21.60;29.30;;;;;;6076050;23;20374;-88
2021/03/29 09:53:43;;;;;;;5.50;2.57;;;22.10;28.50;;;;;;6094125;23;20464;-89
2021/03/29 09:56:12;;;;;;;3.30;2.30;;;22.50;45.30;;;;;;6085141;23;20387;-91
2021/03/29 09:58:54;;;;;;;3.17;2.93;;;22.70;36.00;;;;;;6131492;22;20524;-90
2021/03/29 10:01:22;;;;;;;2.50;2.10;;;23.00;32.50;;;;;;6194393;22;20468;-90
2021/03/29 10:03:55;;;;;;;5.57;2.93;;;22.70;31.60;;;;;;6145143;23;20455;-91
2021/03/29 10:06:21;;;;;;;2.17;1.83;;;23.70;30.80;;;;;;6207774;23;20385;-88
2021/03/29 10:09:01;;;;;;;4.20;3.20;;;25.00;30.00;;;;;;6230038;23;20394;-89
2021/03/29 10:11:53;;;;;;;2.57;2.47;;;23.00;28.40;;;;;;6207598;23;20364;-89
2021/03/29 10:14:34;;;;;;;2.87;2.60;;;24.90;29.40;;;;;;6205788;23;20391;-89
2021/03/29 10:17:45;;;;;;;1.93;1.90;;;24.10;28.70;;;;;;6229647;23;20383;-91
2021/03/29 10:20:22;;;;;;;2.53;2.40;;;23.20;28.20;;;;;;6228335;23;20388;-90
2021/03/29 10:22:54;;;;;;;3.47;2.93;;;23.10;30.00;;;;;;6204893;23;20484;-92
2021/03/29 10:25:24;;;;;;;2.50;2.40;;;22.40;28.50;;;;;;6230542;23;20383;-88
2021/03/29 10:27:54;;;;;;;3.67;2.50;;;25.20;30.70;;;;;;6229138;23;20378;-93
2021/03/29 10:30:40;;;;;;;4.07;2.63;;;23.80;29.90;;;;;;6227238;23;20395;-91
2021/03/29 10:33:06;;;;;;;3.37;3.17;;;;;;;;;;6234457;22;20403;-90
2021/03/29 10:35:33;;;;;;;6.00;2.17;;;24.70;26.50;;;;;;6207390;23;20186;-92
2021/03/29 10:38:03;;;;;;;2.30;2.20;;;25.50;27.20;;;;;;6207871;23;20414;-92
2021/03/29 10:40:29;;;;;;;4.03;2.73;;;25.80;27.00;;;;;;6202364;23;20399;-94
2021/03/29 10:42:55;;;;;;;2.63;2.43;;;26.40;31.10;;;;;;6232240;23;20411;-89
2021/03/29 10:45:26;;;;;;;4.90;2.50;;;29.90;31.90;;;;;;6203780;23;20391;-94
2021/03/29 10:48:10;;;;;;;2.53;2.33;;;24.30;25.40;;;;;;6204383;23;20136;-94
2021/03/29 10:50:36;;;;;;;2.40;2.30;;;;;;;;;;6206046;23;20383;-90
2021/03/29 10:53:56;;;;;;;2.90;2.70;;;26.40;25.30;;;;;;6207369;23;20371;-92
2021/03/29 10:56:23;;;;;;;4.03;2.47;;;27.90;25.80;;;;;;6205406;23;20531;-91
2021/03/29 10:58:53;;;;;;;4.20;2.10;;;26.90;24.70;;;;;;6206215;23;20394;-90
2021/03/29 11:01:23;;;;;;;2.43;2.20;;;25.90;24.00;;;;;;6228507;23;20430;-92
2021/03/29 11:03:55;;;;;;;2.60;2.40;;;26.00;26.30;;;;;;6212757;23;20433;-92
2021/03/29 11:06:28;;;;;;;2.17;2.07;;;25.60;28.90;;;;;;6264760;23;20666;-94
2021/03/29 11:09:00;;;;;;;3.13;2.83;;;28.40;25.20;;;;;;6232262;22;20454;-94
2021/03/29 11:11:28;;;;;;;2.67;2.30;;;26.40;24.40;;;;;;6236412;22;20358;-92
2021/03/29 11:13:54;;;;;;;3.43;3.13;;;29.20;26.90;;;;;;6234892;23;20369;-87
2021/03/29 11:16:22;;;;;;;1.80;1.80;;;27.80;27.10;;;;;;6236906;23;20371;-90
2021/03/29 11:18:50;;;;;;;4.10;2.17;;;28.30;24.60;;;;;;6210069;23;20189;-90
2021/03/29 11:21:16;;;;;;;2.37;2.33;;;26.70;23.80;;;;;;6233700;23;20417;-91
2021/03/29 11:24:03;;;;;;;3.30;2.50;;;27.40;25.00;;;;;;6236256;22;20458;-91
2021/03/29 11:26:39;;;;;;;3.33;2.57;;;26.60;23.90;;;;;;6206396;23;20395;-91
2021/03/29 11:29:08;;;;;;;2.40;2.20;;;24.60;23.50;;;;;;6183341;23;20386;-90
2021/03/29 11:31:40;;;;;;;2.90;2.80;;;25.90;25.50;;;;;;6210557;23;20443;-91
2021/03/29 11:34:06;;;;;;;2.60;2.50;;;;;;;;;;6210604;23;20386;-89
2021/03/29 11:36:34;;;;;;;3.60;2.23;;;27.10;24.00;;;;;;6211551;22;20449;-92
2021/03/29 11:39:04;;;;;;;2.67;2.47;;;29.90;25.40;;;;;;6234810;23;20438;-92
2021/03/29 11:44:06;;;;;;;1.97;1.90;;;27.20;23.90;;;;;;6121802;23;20440;-92
2021/03/29 11:46:32;;;;;;;2.77;2.30;;;28.80;26.40;;;;;;6110872;23;20402;-89
2021/03/29 11:48:58;;;;;;;2.93;2.40;;;27.50;25.10;;;;;;6097024;23;20509;-91
2021/03/29 11:51:24;;;;;;;2.07;2.07;;;28.60;27.70;;;;;;6114291;23;20373;-89
2021/03/29 11:53:50;;;;;;;2.70;2.30;;;26.50;26.30;;;;;;6114292;23;20169;-89
2021/03/29 11:56:15;;;;;;;2.83;2.60;;;26.60;25.30;;;;;;6112459;23;20150;-90
2021/03/29 11:58:42;;;;;;;2.87;2.47;;;26.60;25.30;;;;;;6115325;23;20137;-90
2021/03/29 12:01:23;;;;;;;6.03;2.33;;;30.90;28.10;;;;;;6091381;23;20226;-92
2021/03/29 12:09:17;;;;;;;2.10;2.10;;;26.70;23.50;;;;;;6072265;23;20453;-89
2021/03/29 12:12:08;;;;;;;2.87;2.63;;;26.20;24.00;;;;;;6088572;23;20390;-88
2021/03/29 12:14:36;;;;;;;4.20;2.90;;;26.80;24.20;;;;;;6116791;23;20477;-91
2021/03/29 12:17:04;;;;;;;2.60;2.40;;;29.90;26.30;;;;;;6115276;23;20402;-91
2021/03/29 12:19:30;;;;;;;4.97;3.30;;;27.70;25.00;;;;;;6090507;23;20398;-92
2021/03/29 12:22:38;;;;;;;2.47;2.47;;;26.70;26.10;;;;;;6114325;23;20421;-94
2021/03/29 12:25:04;;;;;;;5.97;3.00;;;26.60;23.20;;;;;;6090804;23;20455;-91
2021/03/29 12:27:31;;;;;;;2.43;2.23;;;26.20;23.60;;;;;;6114847;23;20477;-88
2021/03/29 12:30:04;;;;;;;6.07;2.97;;;26.90;24.40;;;;;;6216638;23;20393;-90
2021/03/29 12:32:32;;;;;;;4.73;2.60;;;27.10;24.30;;;;;;6113832;23;20390;-92
2021/03/29 12:35:45;;;;;;;2.10;2.10;;;25.00;22.40;;;;;;6096216;23;20383;-91
2021/03/29 12:38:12;;;;;;;2.90;2.80;;;25.90;22.60;;;;;;6113572;23;20378;-92
2021/03/29 12:40:44;;;;;;;3.63;2.40;;;26.70;25.50;;;;;;6082832;23;20504;-89
2021/03/29 12:43:14;;;;;;;3.00;2.70;;;26.70;24.20;;;;;;6106936;23;20374;-91
2021/03/29 12:45:42;;;;;;;2.57;2.57;;;28.30;24.20;;;;;;6111268;23;20358;-92
2021/03/29 12:48:16;;;;;;;2.20;2.20;;;27.20;24.50;;;;;;6210133;23;20405;-93
2021/03/29 12:50:48;;;;;;;3.50;2.47;;;27.00;23.60;;;;;;6084070;23;20362;-91
2021/03/29 12:53:14;;;;;;;3.47;3.17;;;26.80;22.80;;;;;;6086762;23;20452;-90
2021/03/29 12:55:40;;;;;;;3.60;2.60;;;26.80;23.70;;;;;;6109932;23;20401;-91
2021/03/29 12:58:19;;;;;;;3.47;2.70;;;26.90;24.40;;;;;;6114380;23;20391;-87
2021/03/29 13:00:48;;;;;;;3.57;3.27;;;26.30;23.80;;;;;;6127405;23;20401;-88
2021/03/29 13:03:21;;;;;;;7.00;2.73;;;27.40;22.60;;;;;;6090921;23;20422;-92
2021/03/29 13:08:24;;;;;;;4.03;2.53;;;26.70;22.80;;;;;;6210253;23;20444;-91
2021/03/29 13:11:19;;;;;;;3.60;2.70;;;27.20;22.70;;;;;;6108022;23;20453;-94
2021/03/29 13:13:56;;;;;;;3.30;3.10;;;27.50;23.10;;;;;;6108092;23;20382;-94
2021/03/29 13:16:25;;;;;;;5.70;2.93;;;28.10;22.50;;;;;;6086122;23;20400;-91
2021/03/29 13:18:56;;;;;;;2.97;2.70;;;27.20;24.90;;;;;;6112029;23;20387;-91
2021/03/29 13:21:31;;;;;;;3.07;2.57;;;27.10;22.10;;;;;;6112979;23;20414;-93
2021/03/29 13:24:01;;;;;;;3.77;2.50;;;27.60;23.50;;;;;;6084892;23;20525;-94
2021/03/29 13:26:28;;;;;;;2.63;2.47;;;28.80;23.40;;;;;;6083513;23;20438;-90
2021/03/29 13:29:01;;;;;;;2.93;2.50;;;27.50;24.20;;;;;;6084985;23;20398;-93
2021/03/29 13:31:34;;;;;;;2.60;2.50;;;26.80;21.60;;;;;;6084879;23;20397;-91
2021/03/29 13:34:03;;;;;;;2.90;2.80;;;28.80;22.50;;;;;;6087147;23;20458;-91
2021/03/29 13:36:35;;;;;;;2.07;2.00;;;28.30;25.50;;;;;;6086369;23;20366;-92
2021/03/29 13:39:07;;;;;;;8.20;3.07;;;26.90;23.50;;;;;;6185099;23;20379;-92
2021/03/29 13:41:38;;;;;;;2.37;2.30;;;26.70;23.50;;;;;;6214054;23;20487;-88
2021/03/29 13:44:20;;;;;;;3.03;2.53;;;29.60;23.00;;;;;;6113767;23;20366;-90
2021/03/29 13:46:47;;;;;;;2.90;2.80;;;27.20;22.70;;;;;;6111811;23;20378;-94
2021/03/29 13:49:20;;;;;;;3.20;2.67;;;27.70;22.70;;;;;;6110009;23;20481;-91
2021/03/29 13:52:08;;;;;;;2.93;2.70;;;28.20;22.60;;;;;;6192090;23;20480;-91
2021/03/29 13:54:35;;;;;;;2.60;2.50;;;26.30;22.60;;;;;;6088423;23;20399;-89
2021/03/29 13:57:08;;;;;;;2.63;2.43;;;29.10;24.10;;;;;;6183024;23;20393;-91
2021/03/29 13:59:34;;;;;;;2.80;2.70;;;28.70;23.10;;;;;;6061076;23;20517;-87
2021/03/29 14:02:13;;;;;;;4.13;3.73;;;28.50;22.90;;;;;;6090760;23;20442;-89
2021/03/29 14:04:50;;;;;;;3.07;2.87;;;28.90;22.70;;;;;;6085406;23;20405;-92
2021/03/29 14:07:19;;;;;;;3.37;2.90;;;26.80;21.90;;;;;;6107362;23;20385;-88
2021/03/29 14:10:06;;;;;;;4.53;2.83;;;26.60;21.90;;;;;;6112362;23;20728;-93
2021/03/29 14:12:31;;;;;;;5.40;2.93;;;27.30;23.20;;;;;;6083240;23;20390;-91
2021/03/29 14:14:57;;;;;;;2.90;2.70;;;25.80;22.20;;;;;;6082515;23;20939;-90
2021/03/29 14:17:24;;;;;;;2.83;2.50;;;27.70;24.70;;;;;;6084358;23;20147;-90
2021/03/29 14:19:55;;;;;;;3.13;3.03;;;27.90;22.70;;;;;;6208987;23;20383;-92
2021/03/29 14:22:25;;;;;;;3.27;3.00;;;28.80;25.20;;;;;;6082782;23;20432;-89
2021/03/29 14:24:52;;;;;;;3.67;2.97;;;26.20;22.80;;;;;;6108830;23;20386;-89
2021/03/29 14:27:34;;;;;;;4.87;3.73;;;26.00;22.70;;;;;;6082766;23;20473;-91
2021/03/29 14:30:02;;;;;;;4.57;3.40;;;26.50;22.20;;;;;;6081681;23;20397;-89
2021/03/29 14:32:28;;;;;;;4.37;3.13;;;27.30;22.90;;;;;;6104398;23;20382;-90
2021/03/29 14:35:45;;;;;;;3.40;3.27;;;27.50;22.70;;;;;;6107358;23;20362;-93
2021/03/29 14:46:00;;;;;;;3.93;2.90;;;25.20;22.20;;;;;;6109238;23;20359;-89
2021/03/29 14:48:45;;;;;;;2.93;2.70;;;25.80;23.80;;;;;;6107142;23;20397;-89
2021/03/29 14:51:14;;;;;;;3.20;3.00;;;27.20;24.30;;;;;;6084219;23;20398;-96
2021/03/29 14:53:39;;;;;;;3.13;3.03;;;25.80;23.10;;;;;;6087969;23;20185;-89
2021/03/29 14:56:05;;;;;;;3.63;3.43;;;25.60;23.10;;;;;;6109231;23;20362;-91
2021/03/29 14:58:37;;;;;;;2.77;2.77;;;24.60;24.00;;;;;;6086992;23;20406;-90
2021/03/29 15:01:15;;;;;;;6.23;3.43;;;25.30;23.50;;;;;;6085317;23;20528;-92
2021/03/29 15:03:41;;;;;;;3.40;3.20;;;24.50;24.70;;;;;;6080624;23;20386;-90
2021/03/29 15:06:28;;;;;;;3.43;3.30;;;23.90;25.10;;;;;;6208489;23;20367;-89
2021/03/29 15:09:03;;;;;;;2.63;2.63;;;26.80;24.60;;;;;;6080251;23;20454;-89
2021/03/29 15:11:36;;;;;;;5.50;3.73;;;24.00;24.10;;;;;;6082459;23;20402;-90
2021/03/29 15:16:36;;;;;;;5.27;4.03;;;24.00;23.60;;;;;;6103508;22;20449;-89
2021/03/29 15:19:02;;;;;;;4.10;3.90;;;28.10;29.20;;;;;;6088513;23;20383;-89
2021/03/29 15:21:28;;;;;;;6.00;3.63;;;24.00;27.20;;;;;;6114817;23;20212;-91
2021/03/29 15:24:02;;;;;;;3.60;3.50;;;24.40;26.80;;;;;;6113434;23;20402;-91
2021/03/29 15:26:29;;;;;;;5.73;3.40;;;25.90;24.50;;;;;;6100874;23;20593;-90
2021/03/29 15:28:57;;;;;;;4.10;2.93;;;23.30;26.40;;;;;;6113328;23;20362;-94
2021/03/29 15:31:26;;;;;;;3.37;3.13;;;25.20;26.30;;;;;;6087873;23;20402;-89
2021/03/29 15:36:24;;;;;;;2.90;2.80;;;23.00;24.50;;;;;;6088808;23;20490;-92
2021/03/29 15:38:50;;;;;;;3.33;3.13;;;27.50;30.00;;;;;;6086633;23;20402;-92
2021/03/29 15:41:20;;;;;;;3.13;3.03;;;25.80;28.60;;;;;;6076829;23;20213;-90
2021/03/29 15:43:50;;;;;;;3.10;3.00;;;22.00;23.50;;;;;;6090649;23;20161;-91
2021/03/29 15:46:23;;;;;;;7.17;3.70;;;24.90;25.50;;;;;;6062437;23;20374;-89
2021/03/29 15:48:59;;;;;;;4.20;4.00;;;24.70;27.70;;;;;;6188612;22;21531;-91
2021/03/29 15:51:31;;;;;;;5.60;3.90;;;22.10;24.50;;;;;;6090763;23;20421;-90
2021/03/29 15:54:01;;;;;;;3.40;3.10;;;23.10;26.70;;;;;;6096818;23;20461;-90
2021/03/29 15:56:31;;;;;;;15.50;3.33;;;24.20;25.40;;;;;;6107945;23;20389;-89
2021/03/29 15:58:58;;;;;;;3.20;3.10;;;22.20;28.20;;;;;;6106403;23;20358;-90
2021/03/29 16:01:46;;;;;;;2.97;2.87;;;22.20;29.90;;;;;;6160944;23;20465;-90
2021/03/29 16:04:11;;;;;;;3.60;3.37;;;24.80;26.00;;;;;;6091216;23;20398;-90
2021/03/29 16:06:37;;;;;;;3.37;3.27;;;21.70;26.50;;;;;;6079342;23;20386;-88
2021/03/29 16:11:39;;;;;;;3.67;3.23;;;21.50;25.70;;;;;;6099099;22;20250;-92
2021/03/29 16:14:07;;;;;;;3.73;3.43;;;24.30;31.80;;;;;;6090804;23;20395;-92
2021/03/29 16:16:43;;;;;;;3.47;3.20;;;21.30;26.20;;;;;;6096124;23;20390;-92
2021/03/29 16:19:15;;;;;;;3.60;3.43;;;22.70;27.60;;;;;;6167111;23;20476;-92
2021/03/29 16:24:55;;;;;;;5.87;3.07;;;21.20;27.80;;;;;;6114859;23;20400;-89
2021/03/29 16:30:36;;;;;;;3.77;3.50;;;21.40;28.40;;;;;;6114290;23;20446;-91
2021/03/29 16:33:17;;;;;;;6.33;3.20;;;21.20;27.50;;;;;;6118706;23;20408;-90
2021/03/29 16:35:43;;;;;;;3.47;3.27;;;21.70;28.10;;;;;;6117934;23;20397;-91
2021/03/29 16:38:12;;;;;;;7.83;4.23;;;21.20;27.70;;;;;;6093528;23;20374;-91
2021/03/29 16:40:53;;;;;;;3.93;3.63;;;22.20;28.40;;;;;;6117622;23;20381;-92
2021/03/29 16:43:18;;;;;;;4.00;3.30;;;23.50;29.00;;;;;;6100796;23;20412;-90
2021/03/29 16:45:46;;;;;;;3.30;3.00;;;20.90;27.30;;;;;;6193043;23;20382;-91
2021/03/29 16:48:15;;;;;;;3.70;3.40;;;20.80;27.90;;;;;;6214325;23;20374;-91
2021/03/29 16:50:49;;;;;;;3.60;3.40;;;21.00;28.40;;;;;;6190002;23;20410;-91
2021/03/29 16:53:35;;;;;;;4.00;3.57;;;21.80;28.70;;;;;;6187541;23;20390;-92
2021/03/29 16:56:26;;;;;;;3.67;3.50;;;23.30;29.70;;;;;;6117359;23;20374;-90
2021/03/29 16:59:06;;;;;;;4.37;3.30;;;23.10;29.60;;;;;;6080860;22;20426;31
2021/03/29 17:01:41;;;;;;;4.53;3.70;;;20.90;28.50;;;;;;6162999;23;20445;-91
2021/03/29 17:04:10;;;;;;;4.83;4.53;;;20.80;27.90;;;;;;6229024;22;20443;-90
2021/03/29 17:35:36;;;;;;;5.67;3.10;;;20.00;26.10;;;;;;6163972;23;20433;31
2021/03/29 17:38:34;;;;;;;3.23;3.13;;;19.90;25.90;;;;;;6001360;23;20441;-89
2021/03/29 17:50:07;;;;;;;3.20;3.00;;;19.50;27.40;;;;;;6031609;23;21111;31
2021/03/29 18:04:19;;;;;;;5.03;4.60;;;18.50;34.60;;;;;;6070924;22;20467;-89
2021/03/29 18:06:57;;;;;;;4.97;4.40;;;18.30;35.60;;;;;;6037653;23;20389;-92
2021/03/29 18:09:28;;;;;;;5.53;4.47;;;20.50;35.30;;;;;;6060616;23;20380;-90
2021/03/29 18:12:42;;;;;;;6.47;3.63;;;17.90;28.00;;;;;;6061647;23;20454;-91
2021/03/29 18:15:19;;;;;;;4.97;4.53;;;20.30;29.50;;;;;;6177216;23;20458;-89
2021/03/29 18:18:14;;;;;;;6.87;4.40;;;18.70;30.60;;;;;;6210457;23;20377;-91
2021/03/29 18:20:55;;;;;;;4.57;4.07;;;;;;;;;;6212177;23;20364;-92
2021/03/29 18:42:04;;;;;;;4.90;4.43;;;16.40;31.90;;;;;;6199809;22;20458;-89